sensor_id;sensor_type;location;lat;lon;timestamp;pressure;altitude;pressure_sealevel;temperature;humidity
39699;BME280;25372;50.582;12.250;2023-01-29T00:00:15;101052.22;;;-2.40;90.67
39699;BME280;25372;50.582;12.250;2023-01-29T00:10:37;101030.72;;;-2.43;90.78
39699;BME280;25372;50.582;12.250;2023-01-29T00:20:58;101033.03;;;-2.56;90.44
39699;BME280;25372;50.582;12.250;2023-01-29T00:31:22;101017.41;;;-2.55;90.44
39699;BME280;25372;50.582;12.250;2023-01-29T00:41:42;100999.41;;;-2.78;92.16
39699;BME280;25372;50.582;12.250;2023-01-29T00:52:22;100999.94;;;-2.70;92.68
39699;BME280;25372;50.582;12.250;2023-01-29T01:02:45;101002.66;;;-2.73;92.20
39699;BME280;25372;50.582;12.250;2023-01-29T01:13:25;101022.25;;;-2.66;92.35
39699;BME280;25372;50.582;12.250;2023-01-29T01:23:46;101009.19;;;-2.65;92.44
39699;BME280;25372;50.582;12.250;2023-01-29T01:34:12;101001.72;;;-2.72;92.25
39699;BME280;25372;50.582;12.250;2023-01-29T01:44:51;100997.03;;;-2.64;93.26
39699;BME280;25372;50.582;12.250;2023-01-29T01:55:16;100986.59;;;-2.82;93.54
39699;BME280;25372;50.582;12.250;2023-01-29T02:05:38;100995.94;;;-2.77;93.43
39699;BME280;25372;50.582;12.250;2023-01-29T02:16:18;100967.59;;;-3.01;93.20
39699;BME280;25372;50.582;12.250;2023-01-29T02:26:46;100973.69;;;-3.62;95.63
39699;BME280;25372;50.582;12.250;2023-01-29T02:37:13;100976.91;;;-3.78;97.95
39699;BME280;25372;50.582;12.250;2023-01-29T02:47:40;100980.69;;;-4.29;100.00
39699;BME280;25372;50.582;12.250;2023-01-29T02:58:09;100989.16;;;-4.26;100.00
39699;BME280;25372;50.582;12.250;2023-01-29T03:08:34;100995.16;;;-4.25;100.00
39699;BME280;25372;50.582;12.250;2023-01-29T03:19:06;100982.66;;;-4.14;97.79
39699;BME280;25372;50.582;12.250;2023-01-29T03:29:30;100967.59;;;-4.04;96.78
39699;BME280;25372;50.582;12.250;2023-01-29T03:40:12;100978.84;;;-4.05;94.48
39699;BME280;25372;50.582;12.250;2023-01-29T03:50:39;100968.38;;;-4.24;95.35
39699;BME280;25372;50.582;12.250;2023-01-29T04:01:13;100972.00;;;-4.28;95.60
39699;BME280;25372;50.582;12.250;2023-01-29T04:11:40;100963.66;;;-4.35;97.35
39699;BME280;25372;50.582;12.250;2023-01-29T04:22:06;100939.56;;;-4.37;97.01
39699;BME280;25372;50.582;12.250;2023-01-29T04:32:31;100930.66;;;-4.30;96.86
39699;BME280;25372;50.582;12.250;2023-01-29T04:43:03;100903.31;;;-4.37;96.66
39699;BME280;25372;50.582;12.250;2023-01-29T04:53:27;100893.91;;;-4.38;96.47
39699;BME280;25372;50.582;12.250;2023-01-29T05:03:53;100855.03;;;-4.36;96.00
39699;BME280;25372;50.582;12.250;2023-01-29T05:14:17;100864.38;;;-4.34;95.65
39699;BME280;25372;50.582;12.250;2023-01-29T05:24:40;100862.84;;;-4.38;95.04
39699;BME280;25372;50.582;12.250;2023-01-29T05:35:01;100848.75;;;-4.31;96.16
39699;BME280;25372;50.582;12.250;2023-01-29T05:45:24;100831.25;;;-4.46;95.68
39699;BME280;25372;50.582;12.250;2023-01-29T05:55:45;100832.38;;;-4.31;95.14
39699;BME280;25372;50.582;12.250;2023-01-29T06:06:08;100849.09;;;-4.40;96.61
39699;BME280;25372;50.582;12.250;2023-01-29T06:16:28;100842.28;;;-4.41;96.01
39699;BME280;25372;50.582;12.250;2023-01-29T06:26:50;100880.56;;;-4.29;95.30
39699;BME280;25372;50.582;12.250;2023-01-29T06:37:11;100896.25;;;-3.91;94.44
39699;BME280;25372;50.582;12.250;2023-01-29T06:47:33;100896.53;;;-3.76;92.71
39699;BME280;25372;50.582;12.250;2023-01-29T06:57:54;100925.94;;;-3.57;92.63
39699;BME280;25372;50.582;12.250;2023-01-29T07:08:16;100945.91;;;-3.40;91.40
39699;BME280;25372;50.582;12.250;2023-01-29T07:18:37;100945.97;;;-3.21;91.93
39699;BME280;25372;50.582;12.250;2023-01-29T07:28:59;100953.53;;;-3.16;90.26
39699;BME280;25372;50.582;12.250;2023-01-29T07:39:20;100929.88;;;-3.08;89.80
39699;BME280;25372;50.582;12.250;2023-01-29T07:49:42;100926.50;;;-2.91;89.97
39699;BME280;25372;50.582;12.250;2023-01-29T08:00:03;100914.84;;;-2.64;89.09
39699;BME280;25372;50.582;12.250;2023-01-29T08:10:33;100875.00;;;-2.63;87.76
39699;BME280;25372;50.582;12.250;2023-01-29T08:20:58;100868.41;;;-2.33;86.68
39699;BME280;25372;50.582;12.250;2023-01-29T08:31:20;100860.91;;;-2.04;87.41
39699;BME280;25372;50.582;12.250;2023-01-29T08:41:41;100862.06;;;-2.10;87.79
39699;BME280;25372;50.582;12.250;2023-01-29T08:52:03;100878.78;;;-1.98;87.16
39699;BME280;25372;50.582;12.250;2023-01-29T09:02:24;100892.88;;;-2.02;87.82
39699;BME280;25372;50.582;12.250;2023-01-29T09:12:47;100857.09;;;-1.97;86.74
39699;BME280;25372;50.582;12.250;2023-01-29T09:23:09;100869.28;;;-1.64;86.37
39699;BME280;25372;50.582;12.250;2023-01-29T09:33:31;100838.00;;;-1.29;85.59
39699;BME280;25372;50.582;12.250;2023-01-29T09:43:54;100865.13;;;-1.51;85.27
39699;BME280;25372;50.582;12.250;2023-01-29T09:54:22;100843.34;;;-1.32;85.55
39699;BME280;25372;50.582;12.250;2023-01-29T10:15:49;100806.00;;;-1.15;83.54
39699;BME280;25372;50.582;12.250;2023-01-29T10:26:14;100825.03;;;-0.37;83.38
39699;BME280;25372;50.582;12.250;2023-01-29T10:36:41;100830.25;;;-0.37;80.15
39699;BME280;25372;50.582;12.250;2023-01-29T10:47:23;100819.84;;;-0.83;83.84
39699;BME280;25372;50.582;12.250;2023-01-29T10:57:57;100795.00;;;-0.28;84.25
39699;BME280;25372;50.582;12.250;2023-01-29T11:08:22;100752.63;;;-0.60;83.57
39699;BME280;25372;50.582;12.250;2023-01-29T11:18:55;100726.75;;;-0.63;85.05
39699;BME280;25372;50.582;12.250;2023-01-29T11:29:40;100705.81;;;-0.76;84.74
39699;BME280;25372;50.582;12.250;2023-01-29T11:40:32;100683.47;;;-0.21;85.58
39699;BME280;25372;50.582;12.250;2023-01-29T11:50:56;100702.09;;;0.02;84.34
39699;BME280;25372;50.582;12.250;2023-01-29T12:01:29;100687.59;;;0.25;82.92
39699;BME280;25372;50.582;12.250;2023-01-29T12:11:50;100676.25;;;0.11;84.21
39699;BME280;25372;50.582;12.250;2023-01-29T12:22:18;100663.72;;;0.45;82.12
39699;BME280;25372;50.582;12.250;2023-01-29T12:32:44;100632.09;;;0.37;83.15
39699;BME280;25372;50.582;12.250;2023-01-29T12:43:15;100619.66;;;0.41;83.97
39699;BME280;25372;50.582;12.250;2023-01-29T12:53:39;100612.53;;;0.30;84.64
39699;BME280;25372;50.582;12.250;2023-01-29T13:04:08;100615.00;;;0.73;83.75
39699;BME280;25372;50.582;12.250;2023-01-29T13:14:37;100598.66;;;0.57;84.18
39699;BME280;25372;50.582;12.250;2023-01-29T13:25:03;100578.56;;;0.84;83.82
39699;BME280;25372;50.582;12.250;2023-01-29T13:35:25;100565.22;;;0.89;85.20
39699;BME280;25372;50.582;12.250;2023-01-29T13:45:48;100566.53;;;0.56;85.68
39699;BME280;25372;50.582;12.250;2023-01-29T13:56:41;100593.63;;;0.54;86.69
39699;BME280;25372;50.582;12.250;2023-01-29T14:07:39;100564.69;;;0.31;87.37
39699;BME280;25372;50.582;12.250;2023-01-29T14:18:17;100565.97;;;0.51;86.53
39699;BME280;25372;50.582;12.250;2023-01-29T14:28:41;100558.16;;;0.11;86.72
39699;BME280;25372;50.582;12.250;2023-01-29T14:39:02;100552.97;;;0.24;88.41
39699;BME280;25372;50.582;12.250;2023-01-29T14:49:52;100569.00;;;-0.10;89.46
39699;BME280;25372;50.582;12.250;2023-01-29T15:00:18;100577.75;;;-0.11;90.51
39699;BME280;25372;50.582;12.250;2023-01-29T15:10:47;100576.03;;;-0.25;90.67
39699;BME280;25372;50.582;12.250;2023-01-29T15:21:30;100561.72;;;-0.46;91.18
39699;BME280;25372;50.582;12.250;2023-01-29T15:31:53;100541.81;;;-0.76;93.32
39699;BME280;25372;50.582;12.250;2023-01-29T15:42:14;100553.25;;;-1.08;95.96
39699;BME280;25372;50.582;12.250;2023-01-29T15:52:41;100540.25;;;-1.08;96.32
39699;BME280;25372;50.582;12.250;2023-01-29T16:03:13;100525.84;;;-0.99;94.25
39699;BME280;25372;50.582;12.250;2023-01-29T16:13:38;100528.44;;;-0.99;93.36
39699;BME280;25372;50.582;12.250;2023-01-29T16:24:04;100517.75;;;-0.94;94.56
39699;BME280;25372;50.582;12.250;2023-01-29T16:34:31;100498.16;;;-1.00;94.38
39699;BME280;25372;50.582;12.250;2023-01-29T16:45:00;100501.75;;;-0.88;94.12
39699;BME280;25372;50.582;12.250;2023-01-29T16:55:23;100485.97;;;-0.99;93.70
39699;BME280;25372;50.582;12.250;2023-01-29T17:05:45;100480.94;;;-0.88;94.04
39699;BME280;25372;50.582;12.250;2023-01-29T17:16:19;100479.47;;;-0.92;93.80
39699;BME280;25372;50.582;12.250;2023-01-29T17:26:41;100471.84;;;-1.10;92.20
39699;BME280;25372;50.582;12.250;2023-01-29T17:37:04;100461.63;;;-1.13;92.03
39699;BME280;25372;50.582;12.250;2023-01-29T17:47:25;100455.41;;;-1.10;91.23
39699;BME280;25372;50.582;12.250;2023-01-29T17:57:47;100443.41;;;-1.13;90.37
39699;BME280;25372;50.582;12.250;2023-01-29T18:08:14;100452.53;;;-1.20;89.27
39699;BME280;25372;50.582;12.250;2023-01-29T18:18:37;100431.16;;;-1.25;88.45
39699;BME280;25372;50.582;12.250;2023-01-29T18:28:59;100445.28;;;-1.29;88.79
39699;BME280;25372;50.582;12.250;2023-01-29T18:39:20;100438.50;;;-1.32;88.94
39699;BME280;25372;50.582;12.250;2023-01-29T18:49:41;100428.19;;;-1.33;89.16
39699;BME280;25372;50.582;12.250;2023-01-29T19:00:04;100404.50;;;-1.43;88.67
39699;BME280;25372;50.582;12.250;2023-01-29T19:10:25;100385.84;;;-1.50;87.64
39699;BME280;25372;50.582;12.250;2023-01-29T19:20:47;100367.66;;;-1.50;88.67
39699;BME280;25372;50.582;12.250;2023-01-29T19:31:09;100360.50;;;-1.46;89.48
39699;BME280;25372;50.582;12.250;2023-01-29T19:41:30;100348.88;;;-1.55;88.63
39699;BME280;25372;50.582;12.250;2023-01-29T19:51:51;100338.88;;;-1.61;88.13
39699;BME280;25372;50.582;12.250;2023-01-29T20:02:15;100348.88;;;-1.69;89.63
39699;BME280;25372;50.582;12.250;2023-01-29T20:12:36;100348.13;;;-2.00;89.98
39699;BME280;25372;50.582;12.250;2023-01-29T20:22:59;100343.75;;;-2.30;91.44
39699;BME280;25372;50.582;12.250;2023-01-29T20:33:20;100334.16;;;-2.74;92.02
39699;BME280;25372;50.582;12.250;2023-01-29T20:43:42;100321.44;;;-2.79;92.70
39699;BME280;25372;50.582;12.250;2023-01-29T20:54:03;100312.19;;;-2.99;92.85
39699;BME280;25372;50.582;12.250;2023-01-29T21:04:26;100300.13;;;-3.00;92.73
39699;BME280;25372;50.582;12.250;2023-01-29T21:14:46;100271.28;;;-2.94;92.21
39699;BME280;25372;50.582;12.250;2023-01-29T21:25:09;100218.91;;;-2.70;89.62
39699;BME280;25372;50.582;12.250;2023-01-29T21:35:30;100218.66;;;-2.51;88.31
39699;BME280;25372;50.582;12.250;2023-01-29T21:45:54;100196.34;;;-2.39;86.48
39699;BME280;25372;50.582;12.250;2023-01-29T21:56:16;100186.06;;;-2.26;87.07
39699;BME280;25372;50.582;12.250;2023-01-29T22:06:39;100143.50;;;-2.38;85.86
39699;BME280;25372;50.582;12.250;2023-01-29T22:16:59;100132.56;;;-2.43;85.98
39699;BME280;25372;50.582;12.250;2023-01-29T22:27:21;100092.59;;;-2.41;86.09
39699;BME280;25372;50.582;12.250;2023-01-29T22:37:41;100063.47;;;-2.32;85.99
39699;BME280;25372;50.582;12.250;2023-01-29T22:48:05;100040.47;;;-2.23;84.91
39699;BME280;25372;50.582;12.250;2023-01-29T22:58:25;100020.19;;;-2.31;85.99
39699;BME280;25372;50.582;12.250;2023-01-29T23:08:47;100003.97;;;-2.35;85.32
39699;BME280;25372;50.582;12.250;2023-01-29T23:19:09;100000.31;;;-2.18;84.52
39699;BME280;25372;50.582;12.250;2023-01-29T23:29:31;99972.25;;;-2.13;84.45
39699;BME280;25372;50.582;12.250;2023-01-29T23:39:52;99955.34;;;-2.05;84.39
39699;BME280;25372;50.582;12.250;2023-01-29T23:50:14;99926.41;;;-1.99;84.19
